Aérodrome :
LOGIN :

S'inscrire | Disclaimer

   EN    FR    IT 

 










Légende :    VFR   VFR Marginal   IFR   IFR Intensif   IFR Très Intensif
Visi : 
Plafond : 
>= 8 km
>= 3000ft
5 à 8 km
1000 à 3000 ft
1500m à 5 km
500 à 1000 ft
800 à 1500m
200 à 500 ft
< 800m
< 200 ft
Symboles :   Orages  Brouillard  Fortes neiges  Fortes précipitations  Vent > 20 kt
SIGMETs :   Divers  Orages  Givrage  Turbulence  Onde Orograph.  Cendres Volcan.







- Altitude de l'aérodrome : 779 ft
- Code IATA : CMF
- Voir les cartes d'approche


LFLB - Chambery / Aix-Les-Bains

DERNIER METAR :
  • 231930Z AUTO 06005KT 360V100 9999 SCT058 BKN072 BKN082 21/19 Q1019

METARs EXPIRÉS :
  • 231900Z AUTO 23006KT 180V260 9999 FEW060 BKN074 BKN098 21/19 Q1019 TEMPO VRB20G45KT 2000 TSRA SCT030CB BKN035TCU
  • 231830Z AUTO VRB07KT 9999 VCTS FEW035/// BKN070/// BKN090/// ///CB 21/18 Q1019 TEMPO VRB20G45KT 2000 TSRA
  • 231800Z AUTO 25005KT 200V320 7000 -RA VCTS FEW044/// BKN068/// BKN098/// ///CB 24/17 Q1018 TEMPO VRB20G45KT 2000 TSRA
  • 231730Z AUTO VRB03KT 9999 FEW050/// BKN076/// BKN120/// ///CB 24/17 Q1017 TEMPO VRB20G45KT 2000 TSRA
  • 231700Z AUTO VRB02KT 9999 BKN080 BKN150 26/17 Q1017 TEMPO VRB20G45KT 2000 TSRA SCT030CB BKN035TCU

TAF TAF LFLB
Valide du 23 à 12h jusqu'au 24 à 12h UTC


231100Z 2312/2412 20005KT 9999 BKN060
BECMG 2316/2318 36008KT
TEMPO 2316/2324 VRB15G35KT 4000 SHRA FEW030CB SCT035TCU BKN040
PROB40
TEMPO 2317/2323 2000 TSRA SCT030CB BKN035TCU
PROB30
TEMPO 2318/2324 VRB20G45KT
BECMG 2406/2408 36015G25KT SCT030 SCT050
Pas de NOTAMs connus pour ce terrain.



MET'MAP, la Météo Aéronautique d'un coup d'oeil ! - Copyright ORBIFLY Décembre 2007 - Disclaimer

ORBIFLY MET'MAP TEAM :

Programmation & Développement : Alexandra Zaïnal
Conception & Développement : Baudouin d'Aumeries
Co-Programmation & Développement : Marc-Olivier Méhu
Soutien technique & logistique : Manuel Goepfert

Contact : metmap@orbifly.com




SOURCES & CREDITS :

   NOAA